Flight Track Log - Related Links

Times and Time Zones

All times are in EDT time to prevent confusion due to time zone crossing. See the UPS1122 flight status page for this flight to view local times or setup timezone preferences in your user account.

Time Position Orientation Groundspeed Altitude Reporting Facility
EDT Latitude Longitude Course Direction KTS MPH feet Rate Location/Type
Thu 06:41:09 AM 41.9436 -72.6997 310° West 163 188 1,200  Level Boston Center
Thu 06:41:58 AM 41.9664 -72.7361 310° West 154 177 3,000 1,982 Climbing Boston Center
Thu 06:42:58 AM 42.0039 -72.7864 315° West 197 227 4,800 2,727 Climbing Boston Center
Thu 06:43:59 AM 42.0494 -72.8511 313° West 236 272 8,500 2,579 Climbing Boston Center
Thu 06:44:59 AM 42.0950 -72.9158 313° West 242 278 10,000 744 Climbing Boston Center
Thu 06:46:00 AM 42.1428 -72.9778 316° Northwest 244 281 10,000  Level Boston Center
Thu 06:46:45 AM 42.1800 -73.0311 313° West 239 275 10,000  Level Boston Center
Thu 06:47:52 AM 42.2297 -73.1017 314° West 240 276 10,000  Level Boston Center
Thu 06:48:52 AM 42.2794 -73.1611 319° Northwest 240 276 10,000  Level Boston Center
Thu 06:49:53 AM 42.3289 -73.2292 315° West 239 275 10,000 -246 Level Boston Center
Thu 06:50:54 AM 42.3700 -73.2972 309° West 238 274 9,500 -1,041 Descending Boston Center
Thu 06:51:54 AM 42.4028 -73.3764 299° West 229 264 7,900 -1,714 Descending Boston Center
Thu 06:53:07 AM 42.4375 -73.4725 296° West 235 270 5,700 -1,567 Descending Boston Center
Thu 06:54:08 AM 42.4658 -73.5517 296° West 233 268 4,400 -1,339 Descending Boston Center
Thu 06:55:08 AM 42.4942 -73.6256 297° West 224 258 3,000 -694 Descending Boston Center
Thu 06:56:09 AM 42.5186 -73.6936 296° West 203 234 3,000  Level Boston Center
Thu 06:57:09 AM 42.5408 -73.7589 295° West 191 220 3,000  Level Boston Center
Thu 06:58:10 AM 42.5736 -73.8019 316° Northwest 181 208 3,000 -197 Level Boston Center
Thu 06:59:11 AM 42.6172 -73.8000 North 151 174 2,600 -614 Descending Boston Center
Thu 07:00:17 AM 42.6653 -73.8011 359° North 151 174 1,700 -709 Descending Boston Center
Thu 07:01:18 AM 42.6986 -73.8044 356° North 116 133 1,100 -590 Descending Boston Center

Login

Don't have an account? Register now (free) for customized features, flight alerts, and more!